createdAt,value
2019-03-06T00:03:10.174Z,6.20
2019-03-06T00:08:09.990Z,6.50
2019-03-06T00:13:09.618Z,6.03
2019-03-06T00:18:09.242Z,5.90
2019-03-06T00:23:08.818Z,5.90
2019-03-06T00:28:08.525Z,7.20
2019-03-06T00:33:08.079Z,5.47
2019-03-06T00:38:07.644Z,5.90
2019-03-06T00:43:07.542Z,5.33
2019-03-06T00:48:07.077Z,5.20
2019-03-06T00:53:06.616Z,7.17
2019-03-06T00:58:06.174Z,7.93
2019-03-06T01:03:07.086Z,7.53
2019-03-06T01:08:06.794Z,7.17
2019-03-06T01:13:06.345Z,7.20
2019-03-06T01:18:06.350Z,7.40
2019-03-06T01:23:05.970Z,8.30
2019-03-06T01:28:05.505Z,6.50
2019-03-06T01:33:14.934Z,6.00
2019-03-06T01:38:32.161Z,6.10
2019-03-06T01:43:36.536Z,7.03
2019-03-06T01:48:36.081Z,6.40
2019-03-06T01:53:35.635Z,6.83
2019-03-06T01:58:35.161Z,7.83
2019-03-06T02:03:34.722Z,6.60
2019-03-06T02:08:34.271Z,7.00
2019-03-06T02:13:33.833Z,7.47
2019-03-06T02:18:33.413Z,7.33
2019-03-06T02:23:33.007Z,6.17
2019-03-06T02:28:32.559Z,7.40
2019-03-06T02:33:32.119Z,6.60
2019-03-06T02:38:31.683Z,6.60
2019-03-06T02:43:31.292Z,7.77
2019-03-06T02:48:30.835Z,6.37
2019-03-06T02:53:30.391Z,8.03
2019-03-06T02:58:46.014Z,7.03
2019-03-06T03:04:17.157Z,4.93
2019-03-06T03:09:18.330Z,6.80
2019-03-06T03:14:17.914Z,6.50
2019-03-06T03:19:17.526Z,6.43
2019-03-06T03:24:17.241Z,6.57
2019-03-06T03:29:16.774Z,7.10
2019-03-06T03:34:16.334Z,6.50
2019-03-06T03:39:15.875Z,7.00
2019-03-06T03:44:15.414Z,6.70
2019-03-06T03:49:14.974Z,7.10
2019-03-06T03:54:14.596Z,7.40
2019-03-06T03:59:14.267Z,6.80
2019-03-06T04:04:14.190Z,6.47
2019-03-06T04:09:13.728Z,6.27
2019-03-06T04:14:13.297Z,7.50
2019-03-06T04:19:12.830Z,5.90
2019-03-06T04:24:12.403Z,7.30
2019-03-06T04:29:12.241Z,6.20
2019-03-06T04:34:11.827Z,6.97
2019-03-06T04:39:11.373Z,7.00
2019-03-06T04:44:11.011Z,7.13
2019-03-06T04:49:10.540Z,7.63
2019-03-06T04:54:10.237Z,6.60
2019-03-06T04:59:09.845Z,8.90
2019-03-06T05:04:10.449Z,8.20
2019-03-06T05:09:09.999Z,7.20
2019-03-06T05:14:09.545Z,7.83
2019-03-06T05:19:09.084Z,7.57
2019-03-06T05:24:08.714Z,7.10
2019-03-06T05:29:08.513Z,7.80
2019-03-06T05:34:08.049Z,8.83
2019-03-06T05:39:09.341Z,8.67
2019-03-06T05:44:09.895Z,9.23
2019-03-06T05:49:09.529Z,8.73
2019-03-06T05:54:09.247Z,9.00
2019-03-06T05:59:08.790Z,8.93
2019-03-06T06:04:08.322Z,7.63
2019-03-06T06:09:07.951Z,8.93
2019-03-06T06:14:07.518Z,8.67
2019-03-06T06:19:07.055Z,9.07
2019-03-06T06:24:11.258Z,8.30
2019-03-06T06:29:10.776Z,8.80
2019-03-06T06:34:10.328Z,7.83
2019-03-06T06:39:09.851Z,8.80
2019-03-06T06:44:16.301Z,8.33
2019-03-06T06:49:15.845Z,9.10
2019-03-06T06:54:29.959Z,7.60
2019-03-06T06:59:34.483Z,8.30
2019-03-06T07:05:31.115Z,8.37
2019-03-06T07:10:44.334Z,8.73
2019-03-06T07:15:59.682Z,7.93
2019-03-06T07:21:22.121Z,8.90
2019-03-06T07:26:40.793Z,7.00
2019-03-06T07:32:08.317Z,7.40
2019-03-06T07:37:11.413Z,7.70
2019-03-06T07:42:28.672Z,7.63
2019-03-06T07:47:52.974Z,8.20
2019-03-06T07:53:44.106Z,6.90
2019-03-06T07:58:54.282Z,7.67
2019-03-06T08:04:08.158Z,6.33
2019-03-06T08:09:10.644Z,7.13
2019-03-06T08:14:32.576Z,8.90
2019-03-06T08:19:51.242Z,6.77
2019-03-06T08:24:57.003Z,6.90
2019-03-06T08:29:56.612Z,8.97
2019-03-06T08:34:56.251Z,7.27
2019-03-06T08:39:55.787Z,6.77
2019-03-06T08:44:55.607Z,6.30
2019-03-06T08:50:04.875Z,6.70
2019-03-06T08:55:20.626Z,6.90
2019-03-06T09:00:39.597Z,7.87
2019-03-06T09:05:56.280Z,6.67
2019-03-06T09:11:03.364Z,7.30
2019-03-06T09:16:23.716Z,7.30
2019-03-06T09:21:57.967Z,7.40
2019-03-06T09:27:03.473Z,5.70
2019-03-06T09:32:28.085Z,6.13
2019-03-06T09:37:50.019Z,4.90
2019-03-06T09:43:02.763Z,5.73
2019-03-06T09:48:15.594Z,5.30
2019-03-06T09:53:34.051Z,5.70
2019-03-06T09:59:01.914Z,5.30
2019-03-06T10:04:36.219Z,5.23
2019-03-06T10:09:59.374Z,5.30
2019-03-06T10:15:11.344Z,5.50
2019-03-06T10:20:14.045Z,4.70
2019-03-06T10:25:14.043Z,5.00
2019-03-06T10:30:14.619Z,4.60
2019-03-06T10:35:15.966Z,5.10
2019-03-06T10:40:16.953Z,3.90
2019-03-06T10:45:17.162Z,4.43
2019-03-06T10:50:26.364Z,5.00
2019-03-06T10:55:20.162Z,4.83
2019-03-06T11:00:24.307Z,4.77
2019-03-06T11:05:29.139Z,4.13
2019-03-06T11:10:30.554Z,4.37
2019-03-06T11:15:30.933Z,3.83
2019-03-06T11:20:32.153Z,4.43
2019-03-06T11:25:33.577Z,3.77
2019-03-06T11:30:36.726Z,3.50
2019-03-06T11:35:36.510Z,3.03
2019-03-06T11:40:37.287Z,3.40
2019-03-06T11:45:38.478Z,4.20
2019-03-06T11:50:40.792Z,3.50
2019-03-06T11:55:39.682Z,5.03
2019-03-06T12:00:43.593Z,3.80
2019-03-06T12:05:43.613Z,2.90
2019-03-06T12:10:43.707Z,3.27
2019-03-06T12:15:46.161Z,3.43
2019-03-06T12:20:45.871Z,3.63
2019-03-06T12:25:45.631Z,3.83
2019-03-06T12:30:45.247Z,4.17
2019-03-06T12:35:44.862Z,3.10
2019-03-06T12:40:44.415Z,3.50
2019-03-06T12:46:05.570Z,2.93
2019-03-06T12:51:05.443Z,3.20
2019-03-06T12:56:05.538Z,2.53
2019-03-06T13:01:05.525Z,2.73
2019-03-06T13:06:05.422Z,2.43
2019-03-06T13:11:05.333Z,2.27
2019-03-06T13:16:05.017Z,1.87
2019-03-06T13:21:07.053Z,1.90
2019-03-06T13:26:10.246Z,1.70
2019-03-06T13:31:08.130Z,2.40
2019-03-06T13:36:08.052Z,1.90
2019-03-06T13:41:07.759Z,1.90
2019-03-06T13:46:07.533Z,1.70
2019-03-06T13:51:07.159Z,2.13
2019-03-06T13:56:07.129Z,1.77
2019-03-06T14:01:09.556Z,1.83
2019-03-06T14:06:09.527Z,2.07
2019-03-06T14:11:09.151Z,1.67
2019-03-06T14:16:09.151Z,2.13
2019-03-06T14:21:08.948Z,3.20
2019-03-06T14:26:08.500Z,2.17
2019-03-06T14:31:10.526Z,2.43
2019-03-06T14:36:09.605Z,2.60
2019-03-06T14:41:09.231Z,3.20
2019-03-06T14:46:16.279Z,3.03
2019-03-06T14:51:11.082Z,2.80
2019-03-06T14:56:10.707Z,2.77
2019-03-06T15:01:10.280Z,2.90
2019-03-06T15:06:09.971Z,2.80
2019-03-06T15:11:09.559Z,3.60
2019-03-06T15:16:09.839Z,3.07
2019-03-06T15:21:10.367Z,2.40
2019-03-06T15:26:10.637Z,2.47
2019-03-06T15:31:10.508Z,2.60
2019-03-06T15:36:10.122Z,2.77
2019-03-06T15:41:09.662Z,2.50
2019-03-06T15:46:09.269Z,2.30
2019-03-06T15:51:08.823Z,3.80
2019-03-06T15:56:08.874Z,3.23
2019-03-06T16:01:08.502Z,3.53
2019-03-06T16:06:08.042Z,3.40
2019-03-06T16:11:08.418Z,3.60
2019-03-06T16:16:08.239Z,3.87
2019-03-06T16:21:09.111Z,3.73
2019-03-06T16:26:08.730Z,4.03
2019-03-06T16:31:08.521Z,4.47
2019-03-06T16:36:08.406Z,6.40
2019-03-06T16:41:07.975Z,6.30
2019-03-06T16:46:07.695Z,8.17
2019-03-06T16:51:09.383Z,7.27
2019-03-06T16:56:09.297Z,6.80
2019-03-06T17:01:09.103Z,7.00
2019-03-06T17:06:08.933Z,7.53
2019-03-06T17:11:10.270Z,6.40
2019-03-06T17:16:10.645Z,6.70
2019-03-06T17:21:10.443Z,6.27
2019-03-06T17:26:10.133Z,5.20
2019-03-06T17:31:09.674Z,5.70
2019-03-06T17:36:09.281Z,5.40
2019-03-06T17:41:09.170Z,5.40
2019-03-06T17:46:09.730Z,5.60
2019-03-06T17:51:10.311Z,5.37
2019-03-06T17:56:10.106Z,5.97
2019-03-06T18:01:15.116Z,6.43
2019-03-06T18:06:14.833Z,6.10
2019-03-06T18:11:14.455Z,5.20
2019-03-06T18:16:14.082Z,5.87
2019-03-06T18:21:13.623Z,4.97
2019-03-06T18:26:13.234Z,5.17
2019-03-06T18:31:12.849Z,5.60
2019-03-06T18:36:13.069Z,5.07
2019-03-06T18:41:12.674Z,4.90
2019-03-06T18:46:12.285Z,5.10
2019-03-06T18:51:11.978Z,4.70
2019-03-06T18:56:11.586Z,4.50
2019-03-06T19:01:11.203Z,4.60
2019-03-06T19:06:11.122Z,5.10
2019-03-06T19:11:17.040Z,4.33
2019-03-06T19:16:12.096Z,4.33
2019-03-06T19:21:11.808Z,4.00
2019-03-06T19:26:11.413Z,4.47
2019-03-06T19:31:12.434Z,3.20
2019-03-06T19:36:12.037Z,3.60
2019-03-06T19:41:11.643Z,3.60
2019-03-06T19:46:11.178Z,3.77
2019-03-06T19:51:11.486Z,3.40
2019-03-06T19:56:11.311Z,2.93
2019-03-06T20:01:10.910Z,4.50
2019-03-06T20:06:10.522Z,3.60
2019-03-06T20:11:10.064Z,3.50
2019-03-06T20:16:09.683Z,3.53
2019-03-06T20:21:09.221Z,3.10
2019-03-06T20:26:13.832Z,3.70
2019-03-06T20:31:10.218Z,3.47
2019-03-06T20:36:10.794Z,3.00
2019-03-06T20:41:10.386Z,3.20
2019-03-06T20:46:09.922Z,3.47
2019-03-06T20:51:09.562Z,3.40
2019-03-06T20:56:09.229Z,3.80
2019-03-06T21:01:08.850Z,3.20
2019-03-06T21:06:08.555Z,3.60
2019-03-06T21:11:08.235Z,3.37
2019-03-06T21:16:08.210Z,3.17
2019-03-06T21:21:08.158Z,3.53
2019-03-06T21:26:08.129Z,2.97
2019-03-06T21:31:07.804Z,3.53
2019-03-06T21:36:08.329Z,3.00
2019-03-06T21:41:08.883Z,3.00
2019-03-06T21:46:08.584Z,3.00
2019-03-06T21:51:08.382Z,2.93
2019-03-06T21:56:11.516Z,3.60
2019-03-06T22:01:14.131Z,3.20
2019-03-06T22:06:14.474Z,3.03
2019-03-06T22:11:14.070Z,3.40
2019-03-06T22:16:13.618Z,4.23
2019-03-06T22:21:13.238Z,3.40
2019-03-06T22:26:12.777Z,3.50
2019-03-06T22:31:12.590Z,4.07
2019-03-06T22:36:12.279Z,3.60
2019-03-06T22:41:12.078Z,3.57
2019-03-06T22:46:11.907Z,4.00
2019-03-06T22:51:11.538Z,3.13
2019-03-06T22:56:11.148Z,4.93
2019-03-06T23:01:24.085Z,3.80
2019-03-06T23:06:25.673Z,3.90
2019-03-06T23:11:25.382Z,3.63
2019-03-06T23:16:24.913Z,3.43
2019-03-06T23:21:24.601Z,3.83
2019-03-06T23:26:24.206Z,4.37
2019-03-06T23:31:24.891Z,4.20
2019-03-06T23:36:24.490Z,3.50
2019-03-06T23:41:24.057Z,3.80
2019-03-06T23:46:23.600Z,3.73
2019-03-06T23:51:28.304Z,3.70
2019-03-06T23:56:27.923Z,3.03
